CLTO2: Kiamichi River Near Clayton, OK

Data processed at Tue May 21 2019 23:50


All information presented herein is the property of the government of the United States of America and may be revised or deleted at any time without prior notice.
Dissemination of this information without the expressed written consent of the Public Affairs Office, Tulsa District U.S. Army Corps of Engineers is strictly prohibited.
These data are gathered electronically and, as presented, have not undergone any form of quality control. These data are not guaranteed to be valid or correct.
Go to home page.
Go to station list.
Go to home page.

Upstream stations:

Downstream station:
Previous Day
Next Day
Current Day
    
SHEF ID:       CLTO2     Kiamichi River near Clayton, OK
STATION TYPE:  
Regulating: Stage =    15.00, Flow =    15549

               PRECIP     STAGE  RIV-FLOW  BAT-LOAD
                   in        ft       cfs      volt
              Ccp-Rev   Ccp-Rev   Ccp-Rev   Ccp-Rev
(US/Central)
05/21 00:00      0.00      5.97      1437     12.89
05/21 01:00      0.00      5.96      1426     12.89
05/21 02:00      0.00      5.95      1415     12.81
05/21 03:00      0.00      5.94      1404     12.81
05/21 04:00      0.00      5.94      1404     12.81
05/21 05:00      0.00      5.93      1393     12.81
05/21 06:00      0.00      5.92      1382     12.81
05/21 07:00      0.00      5.92      1382     12.73
05/21 08:00      0.00      5.90      1360     13.21
05/21 09:00      0.23      5.91      1371     13.05
05/21 10:00      0.48      5.87      1327     13.05
05/21 11:00      0.01      5.79      1232     13.68
05/21 12:00      0.00      5.87      1327     13.92
05/21 13:00      0.00      6.02      1493     14.00
05/21 14:00      0.04      6.16      1659     13.84
05/21 15:00      0.00      6.20      1707     14.08
05/21 16:00      0.00      6.18      1684     14.00
05/21 17:00      0.00      6.15      1647     13.84
05/21 18:00      0.00      6.14      1635     13.68
05/21 19:00      0.00      6.22      1730     13.68
05/21 20:00      0.00      6.30      1823     13.29
05/21 21:00      0.00      6.32      1847     12.97
05/21 22:00      0.00      6.31      1835     12.89
05/21 23:00      0.00      6.32      1847     12.89